createdAt,value
2022-09-13T00:02:06.548Z,11.30
2022-09-13T00:06:12.368Z,11.30
2022-09-13T00:10:15.546Z,11.20
2022-09-13T00:14:20.035Z,11.20
2022-09-13T00:18:23.228Z,11.10
2022-09-13T00:22:27.567Z,11.10
2022-09-13T00:26:30.901Z,11.10
2022-09-13T00:30:35.467Z,11.00
2022-09-13T00:34:38.863Z,11.00
2022-09-13T00:38:43.029Z,10.90
2022-09-13T00:42:46.213Z,10.90
2022-09-13T00:46:51.794Z,10.80
2022-09-13T00:50:57.298Z,10.80
2022-09-13T00:55:03.224Z,10.80
2022-09-13T00:59:12.141Z,10.70
2022-09-13T01:03:19.724Z,10.70
2022-09-13T01:07:23.296Z,10.60
2022-09-13T01:11:32.264Z,10.70
2022-09-13T01:15:35.390Z,10.60
2022-09-13T01:19:40.249Z,10.50
2022-09-13T01:24:09.281Z,10.50
2022-09-13T01:28:27.317Z,10.50
2022-09-13T01:32:43.095Z,10.40
2022-09-13T01:37:21.748Z,10.40
2022-09-13T01:41:43.893Z,10.40
2022-09-13T01:45:54.939Z,10.30
2022-09-13T01:50:13.191Z,10.40
2022-09-13T01:54:21.577Z,10.30
2022-09-13T01:58:29.524Z,10.30
2022-09-13T02:02:36.958Z,10.30
2022-09-13T02:06:47.946Z,10.20
2022-09-13T02:10:55.152Z,10.20
2022-09-13T02:15:04.100Z,10.10
2022-09-13T02:19:13.844Z,10.10
2022-09-13T02:23:22.837Z,10.10
2022-09-13T02:27:29.741Z,10.00
2022-09-13T02:31:37.718Z,10.00
2022-09-13T02:35:46.873Z,9.90
2022-09-13T02:39:56.612Z,9.90
2022-09-13T02:44:07.149Z,9.90
2022-09-13T02:48:17.737Z,9.80
2022-09-13T02:52:34.759Z,9.80
2022-09-13T02:56:47.197Z,9.80
2022-09-13T03:00:50.415Z,9.80
2022-09-13T03:04:53.922Z,9.70
2022-09-13T03:09:00.083Z,9.70
2022-09-13T03:13:36.003Z,9.60
2022-09-13T03:17:51.115Z,9.70
2022-09-13T03:22:15.466Z,9.60
2022-09-13T03:26:37.550Z,9.60
2022-09-13T03:30:51.073Z,9.60
2022-09-13T03:35:03.235Z,9.50
2022-09-13T03:39:15.390Z,9.50
2022-09-13T03:43:23.302Z,9.50
2022-09-13T03:47:29.685Z,9.40
2022-09-13T03:51:34.113Z,9.40
2022-09-13T03:55:41.403Z,9.40
2022-09-13T03:59:48.799Z,9.30
2022-09-13T04:03:56.873Z,9.30
2022-09-13T04:08:00.680Z,9.30
2022-09-13T04:12:04.457Z,9.20
2022-09-13T04:16:08.511Z,9.20
2022-09-13T04:20:13.137Z,9.20
2022-09-13T04:24:16.744Z,9.20
2022-09-13T04:28:21.075Z,9.10
2022-09-13T04:32:24.679Z,9.10
2022-09-13T04:36:29.195Z,9.10
2022-09-13T04:40:32.407Z,9.20
2022-09-13T04:44:35.801Z,9.20
2022-09-13T04:48:39.348Z,9.20
2022-09-13T04:52:44.672Z,9.20
2022-09-13T04:56:48.925Z,9.20
2022-09-13T05:00:56.762Z,9.20
2022-09-13T05:05:00.036Z,9.20
2022-09-13T05:09:05.928Z,9.30
2022-09-13T05:13:09.186Z,9.20
2022-09-13T05:17:12.473Z,9.30
2022-09-13T05:21:15.750Z,9.30
2022-09-13T05:25:25.392Z,9.40
2022-09-13T05:29:29.891Z,9.50
2022-09-13T05:33:35.741Z,9.60
2022-09-13T05:37:39.065Z,9.70
2022-09-13T05:41:43.930Z,9.70
2022-09-13T05:45:47.078Z,9.80
2022-09-13T05:50:09.448Z,9.90
2022-09-13T05:54:13.875Z,10.00
2022-09-13T05:58:18.549Z,10.10
2022-09-13T06:02:21.824Z,10.20
2022-09-13T06:06:25.923Z,10.30
2022-09-13T06:10:29.233Z,10.50
2022-09-13T06:14:33.764Z,10.70
2022-09-13T06:18:37.468Z,10.80
2022-09-13T06:22:40.777Z,10.90
2022-09-13T06:26:43.923Z,11.10
2022-09-13T06:30:48.604Z,11.30
2022-09-13T06:34:51.713Z,11.50
2022-09-13T06:38:55.118Z,11.80
2022-09-13T06:42:58.300Z,12.00
2022-09-13T06:47:02.816Z,12.30
2022-09-13T06:51:09.890Z,12.60
2022-09-13T06:55:12.997Z,12.80
2022-09-13T06:59:16.232Z,13.10
2022-09-13T07:03:20.742Z,13.40
2022-09-13T07:07:23.969Z,13.60
2022-09-13T07:11:30.005Z,13.90
2022-09-13T07:15:33.309Z,14.10
2022-09-13T07:19:37.863Z,14.20
2022-09-13T07:23:41.391Z,14.50
2022-09-13T07:27:44.516Z,14.90
2022-09-13T07:31:50.084Z,15.30
2022-09-13T07:35:58.170Z,15.60
2022-09-13T07:40:01.455Z,15.80
2022-09-13T07:44:06.537Z,16.00
2022-09-13T07:48:09.647Z,16.40
2022-09-13T07:52:14.163Z,16.90
2022-09-13T07:56:20.157Z,17.10
2022-09-13T08:00:24.774Z,17.40
2022-09-13T08:04:28.187Z,17.70
2022-09-13T08:08:33.350Z,18.10
2022-09-13T08:12:36.741Z,18.50
2022-09-13T08:16:40.482Z,18.90
2022-09-13T08:20:43.916Z,19.20
2022-09-13T08:24:48.412Z,19.40
2022-09-13T08:28:56.827Z,19.40
2022-09-13T08:33:01.490Z,19.60
2022-09-13T08:37:04.663Z,19.50
2022-09-13T08:41:28.944Z,20.30
2022-09-13T08:45:32.276Z,22.30
2022-09-13T08:49:38.439Z,23.80
2022-09-13T08:53:48.727Z,25.40
2022-09-13T08:58:00.629Z,26.70
2022-09-13T09:02:19.595Z,27.50
2022-09-13T09:06:23.799Z,27.60
2022-09-13T09:10:31.043Z,27.30
2022-09-13T09:14:40.623Z,28.40
2022-09-13T09:18:48.715Z,28.50
2022-09-13T09:22:55.016Z,28.80
2022-09-13T09:26:59.242Z,28.40
2022-09-13T09:31:10.175Z,28.40
2022-09-13T09:35:21.664Z,26.80
2022-09-13T09:39:32.776Z,27.70
2022-09-13T09:43:41.074Z,29.40
2022-09-13T09:47:48.058Z,28.60
2022-09-13T09:51:51.364Z,28.30
2022-09-13T09:56:01.557Z,28.10
2022-09-13T10:00:13.332Z,28.20
2022-09-13T10:04:23.704Z,29.00
2022-09-13T10:08:29.766Z,28.80
2022-09-13T10:12:35.462Z,29.60
2022-09-13T10:16:38.816Z,29.80
2022-09-13T10:20:45.151Z,29.80
2022-09-13T10:24:50.734Z,29.60
2022-09-13T10:28:58.232Z,28.60
2022-09-13T10:33:02.979Z,29.30
2022-09-13T10:37:17.416Z,29.20
2022-09-13T10:41:26.223Z,30.70
2022-09-13T10:45:32.364Z,30.30
2022-09-13T10:49:46.841Z,30.90
2022-09-13T10:53:51.501Z,30.50
2022-09-13T10:57:56.322Z,31.20
2022-09-13T11:02:35.715Z,32.50
2022-09-13T11:06:43.916Z,31.90
2022-09-13T11:11:02.805Z,33.60
2022-09-13T11:15:18.959Z,33.50
2022-09-13T11:20:08.695Z,32.30
2022-09-13T11:24:40.399Z,30.70
2022-09-13T11:29:02.588Z,30.80
2022-09-13T11:33:28.704Z,30.70
2022-09-13T11:37:44.695Z,30.40
2022-09-13T11:41:59.740Z,30.10
2022-09-13T11:46:12.624Z,29.00
2022-09-13T11:50:27.335Z,29.20
2022-09-13T11:54:50.267Z,29.10
2022-09-13T11:58:57.906Z,28.70
2022-09-13T12:03:14.185Z,27.70
2022-09-13T12:07:28.492Z,27.50
2022-09-13T12:11:37.127Z,27.00
2022-09-13T12:15:43.667Z,27.00
2022-09-13T12:19:54.926Z,26.80
2022-09-13T12:24:04.539Z,27.20
2022-09-13T12:28:15.213Z,28.40
2022-09-13T12:32:20.225Z,29.40
2022-09-13T12:36:58.062Z,30.00
2022-09-13T12:41:28.786Z,30.50
2022-09-13T12:45:55.959Z,30.20
2022-09-13T12:50:43.047Z,29.50
2022-09-13T12:55:42.807Z,28.80
2022-09-13T12:59:58.794Z,29.20
2022-09-13T13:04:06.129Z,30.30
2022-09-13T13:08:30.073Z,30.70
2022-09-13T13:12:36.958Z,30.90
2022-09-13T13:16:41.717Z,31.50
2022-09-13T13:21:05.926Z,32.80
2022-09-13T13:25:32.524Z,33.00
2022-09-13T13:29:37.256Z,32.40
2022-09-13T13:33:51.912Z,31.20
2022-09-13T13:37:55.786Z,29.70
2022-09-13T13:42:00.355Z,29.00
2022-09-13T13:46:31.283Z,27.70
2022-09-13T13:50:37.622Z,27.60
2022-09-13T13:55:01.142Z,27.40
2022-09-13T13:59:14.898Z,27.90
2022-09-13T14:03:28.150Z,28.40
2022-09-13T14:08:13.298Z,29.40
2022-09-13T14:12:28.402Z,31.40
2022-09-13T14:16:46.121Z,32.50
2022-09-13T14:21:01.794Z,33.50
2022-09-13T14:25:17.074Z,34.70
2022-09-13T14:29:22.992Z,36.70
2022-09-13T14:33:31.455Z,37.60
2022-09-13T14:37:38.142Z,38.00
2022-09-13T14:41:41.339Z,36.20
2022-09-13T14:45:47.052Z,35.90
2022-09-13T14:49:54.156Z,36.20
2022-09-13T14:54:02.608Z,34.00
2022-09-13T14:58:08.970Z,30.50
2022-09-13T15:02:20.023Z,28.10
2022-09-13T15:06:26.975Z,26.80
2022-09-13T15:10:35.536Z,25.80
2022-09-13T15:14:39.234Z,25.50
2022-09-13T15:18:42.450Z,25.30
2022-09-13T15:22:45.832Z,25.10
2022-09-13T15:26:50.407Z,24.90
2022-09-13T15:30:54.642Z,24.70
2022-09-13T15:35:00.606Z,24.30
2022-09-13T15:39:16.901Z,23.90
2022-09-13T15:43:21.430Z,23.70
2022-09-13T15:47:24.902Z,23.50
2022-09-13T15:51:28.951Z,23.50
2022-09-13T15:55:33.150Z,23.50
2022-09-13T15:59:38.130Z,23.40
2022-09-13T16:03:41.669Z,23.20
2022-09-13T16:07:45.506Z,23.10
2022-09-13T16:11:50.214Z,22.80
2022-09-13T16:15:57.800Z,22.60
2022-09-13T16:20:01.317Z,22.40
2022-09-13T16:24:05.135Z,22.00
2022-09-13T16:28:23.021Z,21.80
2022-09-13T16:32:27.601Z,21.50
2022-09-13T16:36:31.201Z,21.40
2022-09-13T16:40:34.464Z,21.10
2022-09-13T16:44:37.874Z,20.70
2022-09-13T16:48:43.280Z,20.40
2022-09-13T16:52:46.598Z,20.30
2022-09-13T16:56:49.838Z,20.20
2022-09-13T17:00:53.375Z,20.20
2022-09-13T17:04:58.337Z,20.00
2022-09-13T17:09:05.835Z,19.80
2022-09-13T17:13:09.950Z,19.70
2022-09-13T17:17:17.000Z,19.50
2022-09-13T17:21:22.462Z,19.40
2022-09-13T17:25:25.653Z,19.30
2022-09-13T17:29:31.132Z,19.30
2022-09-13T17:33:34.771Z,19.10
2022-09-13T17:38:05.898Z,18.90
2022-09-13T17:42:09.259Z,18.80
2022-09-13T17:46:14.599Z,18.70
2022-09-13T17:50:18.267Z,18.60
2022-09-13T17:54:22.956Z,18.60
2022-09-13T17:58:27.711Z,18.50
2022-09-13T18:02:30.953Z,18.40
2022-09-13T18:06:34.653Z,18.50
2022-09-13T18:10:58.333Z,18.40
2022-09-13T18:15:03.430Z,18.40
2022-09-13T18:19:07.663Z,18.30
2022-09-13T18:23:11.782Z,18.30
2022-09-13T18:27:20.150Z,18.20
2022-09-13T18:31:32.330Z,18.20
2022-09-13T18:35:38.496Z,18.20
2022-09-13T18:39:45.204Z,18.10
2022-09-13T18:43:55.803Z,18.10
2022-09-13T18:47:59.880Z,17.90
2022-09-13T18:52:04.872Z,17.90
2022-09-13T18:56:10.644Z,17.90
2022-09-13T19:00:19.194Z,17.80
2022-09-13T19:04:26.657Z,17.80
2022-09-13T19:08:30.476Z,17.80
2022-09-13T19:12:34.693Z,17.80
2022-09-13T19:16:42.356Z,17.80
2022-09-13T19:20:46.172Z,17.80
2022-09-13T19:24:54.276Z,17.80
2022-09-13T19:29:00.714Z,17.80
2022-09-13T19:33:07.222Z,17.80
2022-09-13T19:37:11.492Z,17.80
2022-09-13T19:41:19.803Z,17.80
2022-09-13T19:45:25.935Z,17.70
2022-09-13T19:49:35.403Z,17.70
2022-09-13T19:53:56.569Z,17.70
2022-09-13T19:58:01.488Z,17.70
2022-09-13T20:02:05.561Z,17.60
2022-09-13T20:06:14.454Z,17.60
2022-09-13T20:10:18.350Z,17.50
2022-09-13T20:14:22.818Z,17.50
2022-09-13T20:18:30.263Z,17.50
2022-09-13T20:22:35.682Z,17.30
2022-09-13T20:26:39.238Z,17.30
2022-09-13T20:30:43.228Z,17.10
2022-09-13T20:34:48.314Z,17.10
2022-09-13T20:38:57.715Z,17.10
2022-09-13T20:43:07.954Z,17.00
2022-09-13T20:47:11.723Z,16.80
2022-09-13T20:51:17.860Z,16.80
2022-09-13T20:55:22.510Z,16.70
2022-09-13T20:59:26.607Z,16.70
2022-09-13T21:03:30.214Z,16.50
2022-09-13T21:07:50.785Z,16.40
2022-09-13T21:12:02.179Z,16.20
2022-09-13T21:16:06.452Z,16.10
2022-09-13T21:20:10.132Z,16.10
2022-09-13T21:34:16.838Z,15.90
2022-09-13T21:38:26.284Z,15.70
2022-09-13T21:42:31.681Z,15.70
2022-09-13T21:46:38.267Z,15.70
2022-09-13T21:50:42.287Z,15.60
2022-09-13T21:54:45.490Z,15.50
2022-09-13T21:58:50.896Z,15.50
2022-09-13T22:02:55.548Z,15.40
2022-09-13T22:06:58.726Z,15.40
2022-09-13T22:11:07.804Z,15.40
2022-09-13T22:15:11.681Z,15.40
2022-09-13T22:19:18.498Z,15.40
2022-09-13T22:23:21.658Z,15.40
2022-09-13T22:27:48.258Z,15.40
2022-09-13T22:32:36.526Z,15.40
2022-09-13T22:52:09.532Z,15.30
2022-09-13T22:56:22.158Z,15.30
2022-09-13T23:00:29.087Z,15.30
2022-09-13T23:04:35.244Z,15.30
2022-09-13T23:08:41.741Z,15.30
2022-09-13T23:12:48.903Z,15.30
2022-09-13T23:16:56.257Z,15.20
2022-09-13T23:21:00.645Z,15.20
2022-09-13T23:25:06.688Z,15.20
2022-09-13T23:29:15.459Z,15.20
2022-09-13T23:33:21.231Z,15.20
2022-09-13T23:37:25.323Z,15.30
2022-09-13T23:41:30.072Z,15.20
2022-09-13T23:45:35.200Z,15.10
2022-09-13T23:49:42.238Z,15.00
2022-09-13T23:53:47.487Z,15.00
2022-09-13T23:57:52.410Z,14.90
